Time;durP1;ratioP1;P1;durP2;ratioP2;P2;SDS_P1;SDS_P2;PMS_P1;PMS_P2;Temp;Humidity;BMP_temperature;BMP_pressure;BME280_temperature;BME280_humidity;BME280_pressure;Samples;Min_cycle;Max_cycle;Signal;HPM_P1;HPM_P2
2023/10/31 00:02:11;;;;;;;4.07;2.60;;;24.50;60.00;;;;;;6166184;28;82282;-65
2023/10/31 00:05:11;;;;;;;5.53;2.78;;;24.50;60.00;;;;;;6179797;28;80408;-65
2023/10/31 00:08:12;;;;;;;4.00;2.30;;;24.50;60.20;;;;;;6161561;28;80286;-63
2023/10/31 00:11:12;;;;;;;4.50;2.40;;;24.50;60.10;;;;;;6158291;28;81561;-63
2023/10/31 00:14:13;;;;;;;4.75;2.42;;;24.50;60.10;;;;;;6189886;28;80246;-63
2023/10/31 00:17:13;;;;;;;6.15;3.08;;;24.50;60.20;;;;;;6216029;28;81425;-64
2023/10/31 00:20:14;;;;;;;4.32;2.55;;;24.50;60.20;;;;;;6209234;28;80015;-65
2023/10/31 00:23:14;;;;;;;5.72;2.83;;;24.50;60.10;;;;;;6181996;28;81013;-64
2023/10/31 00:26:15;;;;;;;4.47;2.63;;;24.50;60.80;;;;;;6202171;28;80578;-64
2023/10/31 00:29:23;;;;;;;4.15;2.50;;;24.50;60.30;;;;;;6191168;28;80589;-64
2023/10/31 00:32:25;;;;;;;4.57;2.45;;;24.50;60.20;;;;;;6193018;28;80510;-66
2023/10/31 00:35:26;;;;;;;4.97;2.58;;;24.50;60.20;;;;;;6203344;27;82936;-66
2023/10/31 00:38:26;;;;;;;3.28;2.28;;;24.50;60.00;;;;;;6189492;28;80347;-65
2023/10/31 00:41:27;;;;;;;3.55;2.33;;;24.50;60.00;;;;;;6175031;28;80272;-65
2023/10/31 00:44:27;;;;;;;3.53;2.42;;;24.50;60.00;;;;;;6210574;28;81840;-65
2023/10/31 00:47:29;;;;;;;2.97;2.17;;;24.50;60.00;;;;;;6190646;28;83282;-63
2023/10/31 00:50:30;;;;;;;3.47;2.13;;;24.50;60.00;;;;;;6205577;27;80053;-65
2023/10/31 00:53:30;;;;;;;3.08;2.10;;;24.50;60.10;;;;;;6203683;28;81651;-65
2023/10/31 00:56:31;;;;;;;3.70;1.95;;;24.50;60.30;;;;;;6195859;28;81020;-63
2023/10/31 00:59:31;;;;;;;7.30;2.25;;;24.50;60.20;;;;;;6179833;28;80779;-63
2023/10/31 01:02:32;;;;;;;4.80;2.28;;;24.50;60.20;;;;;;6158566;28;81267;-67
2023/10/31 01:05:32;;;;;;;4.13;2.20;;;24.50;60.10;;;;;;6203311;28;81966;-68
2023/10/31 01:08:33;;;;;;;4.30;2.47;;;24.40;60.10;;;;;;6178886;28;81518;-67
2023/10/31 01:11:33;;;;;;;4.00;2.10;;;24.50;60.20;;;;;;6187706;28;80744;-67
2023/10/31 01:14:34;;;;;;;2.65;1.92;;;24.50;60.40;;;;;;6170319;28;83211;-66
2023/10/31 01:17:35;;;;;;;4.20;2.17;;;24.50;60.30;;;;;;6171954;28;81135;-67
2023/10/31 01:20:35;;;;;;;3.47;2.05;;;24.50;60.20;;;;;;6162835;28;80386;-71
2023/10/31 01:23:37;;;;;;;4.53;2.50;;;24.50;60.20;;;;;;6171215;28;81802;-69
2023/10/31 01:26:37;;;;;;;3.35;2.15;;;24.50;60.30;;;;;;6164476;28;80687;-69
2023/10/31 01:29:38;;;;;;;5.03;2.22;;;24.50;60.40;;;;;;6179198;28;81406;-69
2023/10/31 01:32:38;;;;;;;5.22;2.63;;;24.50;60.40;;;;;;6177074;28;81419;-67
2023/10/31 01:35:38;;;;;;;3.55;2.17;;;24.50;60.60;;;;;;6203036;28;81686;-71
2023/10/31 01:38:39;;;;;;;3.10;1.95;;;24.50;60.50;;;;;;6225339;27;83590;-70
2023/10/31 01:41:40;;;;;;;8.02;2.65;;;24.50;60.50;;;;;;6224897;27;83723;-73
2023/10/31 01:44:40;;;;;;;3.38;2.10;;;24.50;60.60;;;;;;6224817;27;80526;-69
2023/10/31 01:47:41;;;;;;;5.82;2.85;;;24.50;60.60;;;;;;6201888;28;81023;-71
2023/10/31 01:50:41;;;;;;;4.57;2.50;;;24.50;60.50;;;;;;6221552;27;80734;-72
2023/10/31 01:53:42;;;;;;;5.07;2.45;;;24.50;60.40;;;;;;6200669;28;83610;-79
2023/10/31 01:56:42;;;;;;;3.28;1.83;;;24.50;60.30;;;;;;6216494;27;80987;-78
2023/10/31 01:59:43;;;;;;;2.90;2.13;;;24.50;60.30;;;;;;6213729;28;81523;-78
2023/10/31 02:02:43;;;;;;;5.90;2.30;;;24.50;60.40;;;;;;6187503;28;83451;-80
2023/10/31 02:05:44;;;;;;;2.80;1.98;;;24.50;60.40;;;;;;6165121;28;81698;-82
2023/10/31 02:08:44;;;;;;;3.85;2.22;;;24.50;60.40;;;;;;6187262;27;81250;-74
2023/10/31 02:11:45;;;;;;;5.22;2.40;;;24.60;60.40;;;;;;6191412;28;80379;-72
2023/10/31 02:14:45;;;;;;;2.80;2.15;;;24.60;60.40;;;;;;6205650;27;80660;-71
2023/10/31 02:17:46;;;;;;;3.10;2.05;;;24.50;61.00;;;;;;6193451;28;82742;-63
2023/10/31 02:20:46;;;;;;;4.10;2.30;;;24.50;60.30;;;;;;6169732;28;81943;-63
2023/10/31 02:23:47;;;;;;;3.33;1.85;;;24.60;60.30;;;;;;6166568;28;80646;-63
2023/10/31 02:26:47;;;;;;;2.55;1.80;;;24.60;60.30;;;;;;6224802;27;82100;-64
2023/10/31 02:29:48;;;;;;;3.47;1.90;;;24.60;60.20;;;;;;6213984;28;83316;-65
2023/10/31 02:32:49;;;;;;;3.50;1.98;;;24.50;60.10;;;;;;6224297;27;80586;-64
2023/10/31 02:35:49;;;;;;;4.32;2.20;;;24.50;60.20;;;;;;6224884;27;81435;-63
2023/10/31 02:38:50;;;;;;;4.90;2.20;;;24.50;60.30;;;;;;6220536;27;82496;-65
2023/10/31 02:41:50;;;;;;;3.40;1.90;;;24.50;60.30;;;;;;6178075;28;90541;-66
2023/10/31 02:44:51;;;;;;;2.72;1.95;;;24.50;60.30;;;;;;6171875;28;80345;-65
2023/10/31 02:47:51;;;;;;;2.90;1.85;;;24.50;60.10;;;;;;6183827;28;80958;-67
2023/10/31 02:50:52;;;;;;;3.00;1.92;;;24.50;60.10;;;;;;6182769;28;84644;-65
2023/10/31 02:53:53;;;;;;;2.88;1.80;;;24.50;60.20;;;;;;6214477;27;83609;-67
2023/10/31 02:56:54;;;;;;;2.97;2.03;;;24.50;60.10;;;;;;6204047;28;83822;-66
2023/10/31 02:59:55;;;;;;;3.05;1.80;;;24.50;60.30;;;;;;6171155;28;80371;-65
2023/10/31 03:02:55;;;;;;;3.00;1.98;;;24.50;60.30;;;;;;6160278;28;80538;-66
2023/10/31 03:05:56;;;;;;;3.83;2.10;;;24.60;60.20;;;;;;6169518;28;80324;-65
2023/10/31 03:08:56;;;;;;;5.22;1.83;;;24.50;60.10;;;;;;6173969;28;80531;-64
2023/10/31 03:11:57;;;;;;;4.05;1.90;;;24.60;60.10;;;;;;6179875;28;80197;-70
2023/10/31 03:14:57;;;;;;;2.35;1.42;;;24.60;60.10;;;;;;6167121;28;83017;-68
2023/10/31 03:17:58;;;;;;;3.55;2.03;;;24.50;60.10;;;;;;6158554;28;80700;-71
2023/10/31 03:20:58;;;;;;;3.15;1.67;;;24.50;60.00;;;;;;6162912;28;80976;-72
2023/10/31 03:23:59;;;;;;;3.05;1.67;;;24.50;60.00;;;;;;6194224;28;81253;-71
2023/10/31 03:26:59;;;;;;;3.38;1.60;;;24.50;60.00;;;;;;6183750;28;81941;-74
2023/10/31 03:30:00;;;;;;;4.50;1.80;;;24.50;60.00;;;;;;6189603;28;82423;-65
2023/10/31 03:33:01;;;;;;;3.53;1.73;;;24.50;60.00;;;;;;6222154;27;80577;-64
2023/10/31 03:36:02;;;;;;;2.17;1.63;;;24.50;60.00;;;;;;6187676;28;85926;-64
2023/10/31 03:39:03;;;;;;;3.20;1.70;;;24.50;59.90;;;;;;6199865;28;80439;-65
2023/10/31 03:42:05;;;;;;;3.03;1.77;;;24.50;59.90;;;;;;6200459;28;80333;-64
2023/10/31 03:45:06;;;;;;;3.88;2.10;;;24.50;59.90;;;;;;6200190;28;80640;-63
2023/10/31 03:48:06;;;;;;;6.75;2.05;;;24.50;59.90;;;;;;6193295;28;86182;-63
2023/10/31 03:51:07;;;;;;;4.60;1.80;;;24.50;59.80;;;;;;6183734;28;81321;-63
2023/10/31 03:54:07;;;;;;;3.00;1.70;;;24.50;59.70;;;;;;6179104;28;82295;-62
2023/10/31 03:57:08;;;;;;;3.72;1.80;;;24.50;59.70;;;;;;6178465;28;81986;-62
2023/10/31 04:00:08;;;;;;;4.40;2.03;;;24.40;60.30;;;;;;6187038;28;81961;-64
2023/10/31 04:03:13;;;;;;;2.63;2.10;;;24.40;59.70;;;;;;6168092;28;81085;-64
2023/10/31 04:06:14;;;;;;;3.85;1.75;;;24.50;59.90;;;;;;6163355;28;80154;-63
2023/10/31 04:09:14;;;;;;;2.72;1.77;;;24.50;60.00;;;;;;6180485;28;81489;-65
2023/10/31 04:12:15;;;;;;;3.45;1.77;;;24.50;59.80;;;;;;6176187;28;82003;-62
2023/10/31 04:15:15;;;;;;;3.65;2.10;;;24.50;59.80;;;;;;6166858;28;80917;-63
2023/10/31 04:18:16;;;;;;;3.72;2.00;;;24.40;59.90;;;;;;6187870;28;83653;-64
2023/10/31 04:21:17;;;;;;;3.95;2.05;;;24.50;59.90;;;;;;6201624;27;83832;-63
2023/10/31 04:24:17;;;;;;;5.57;2.65;;;24.50;59.80;;;;;;6209188;28;85148;-67
2023/10/31 04:27:18;;;;;;;2.67;1.75;;;24.50;59.90;;;;;;6207406;28;82797;-63
2023/10/31 04:30:18;;;;;;;6.03;2.33;;;24.60;60.20;;;;;;6203532;27;81548;-61
2023/10/31 04:33:19;;;;;;;4.18;2.17;;;24.50;59.80;;;;;;6193164;28;80707;-61
2023/10/31 04:36:20;;;;;;;3.60;1.65;;;24.50;59.80;;;;;;6192060;28;80389;-62
2023/10/31 04:39:20;;;;;;;2.95;1.77;;;24.50;59.80;;;;;;6203612;28;81478;-60
2023/10/31 04:42:22;;;;;;;3.58;1.95;;;24.40;59.80;;;;;;6210554;28;81227;-67
2023/10/31 04:45:22;;;;;;;2.15;1.85;;;24.40;59.70;;;;;;6207684;27;80883;-67
2023/10/31 04:48:23;;;;;;;3.85;1.90;;;24.40;59.80;;;;;;6202835;27;80856;-67
2023/10/31 04:51:24;;;;;;;3.50;2.03;;;24.50;60.10;;;;;;6180203;28;87833;-63
2023/10/31 04:54:24;;;;;;;6.85;2.03;;;24.50;60.50;;;;;;6186404;28;80913;-64
2023/10/31 04:57:25;;;;;;;4.90;2.22;;;24.60;60.00;;;;;;6187527;28;80814;-65
2023/10/31 05:00:25;;;;;;;5.55;2.42;;;24.60;60.80;;;;;;6170390;28;84251;-70
2023/10/31 05:03:26;;;;;;;5.82;2.17;;;24.60;60.70;;;;;;6162889;28;80461;-66
2023/10/31 05:06:26;;;;;;;5.40;2.20;;;24.60;60.90;;;;;;6170341;28;80864;-65
2023/10/31 05:09:27;;;;;;;5.70;2.35;;;24.60;61.30;;;;;;6158865;28;81222;-67
2023/10/31 05:12:27;;;;;;;6.38;2.63;;;24.70;61.30;;;;;;6178285;28;80490;-71
2023/10/31 05:15:28;;;;;;;5.70;2.40;;;24.70;61.50;;;;;;6199390;28;80925;-68
2023/10/31 05:18:29;;;;;;;9.30;2.03;;;24.70;61.30;;;;;;6199273;28;80165;-69
2023/10/31 05:21:29;;;;;;;8.25;1.90;;;24.70;61.30;;;;;;6184086;28;80685;-70
2023/10/31 05:24:32;;;;;;;3.70;2.22;;;24.70;61.40;;;;;;6172424;28;80378;-66
2023/10/31 05:27:32;;;;;;;12.90;2.70;;;24.70;61.40;;;;;;6175561;28;80805;-65
2023/10/31 05:30:33;;;;;;;7.22;2.65;;;24.70;61.20;;;;;;6197063;28;80125;-66
2023/10/31 05:33:33;;;;;;;14.52;2.83;;;24.70;61.00;;;;;;6192507;28;80944;-68
2023/10/31 05:36:34;;;;;;;9.93;2.22;;;24.70;61.00;;;;;;6198631;28;80363;-75
2023/10/31 05:39:36;;;;;;;17.30;2.30;;;24.70;61.30;;;;;;6195786;28;80826;-63
2023/10/31 05:42:37;;;;;;;9.32;2.40;;;24.70;61.50;;;;;;6195227;28;80659;-61
2023/10/31 05:45:37;;;;;;;6.13;2.28;;;24.70;61.40;;;;;;6192029;28;80666;-62
2023/10/31 05:48:38;;;;;;;7.07;2.38;;;24.70;61.40;;;;;;6184737;28;81363;-62
2023/10/31 05:51:39;;;;;;;17.63;2.55;;;24.70;61.00;;;;;;6196712;28;82715;-62
2023/10/31 05:54:39;;;;;;;12.57;2.95;;;24.70;60.50;;;;;;6174680;28;81011;-62
2023/10/31 05:57:40;;;;;;;8.57;1.75;;;24.70;60.30;;;;;;6185391;28;80792;-62
2023/10/31 06:00:41;;;;;;;6.05;1.80;;;24.60;59.70;;;;;;6180992;28;80622;-61
2023/10/31 06:03:42;;;;;;;4.30;1.85;;;24.60;59.30;;;;;;6178369;28;81523;-61
2023/10/31 06:06:42;;;;;;;5.95;2.05;;;24.60;59.00;;;;;;6191670;28;81836;-61
2023/10/31 06:09:43;;;;;;;8.02;2.60;;;24.60;58.70;;;;;;6185027;28;82783;-62
2023/10/31 06:12:43;;;;;;;3.15;1.80;;;24.60;58.60;;;;;;6193653;28;80564;-62
2023/10/31 06:15:44;;;;;;;5.45;1.90;;;24.60;58.50;;;;;;6186606;28;80910;-75
2023/10/31 06:18:44;;;;;;;6.30;2.05;;;24.60;57.80;;;;;;6187390;28;82840;-77
2023/10/31 06:21:45;;;;;;;4.50;2.03;;;24.60;57.70;;;;;;6195752;28;80173;-77
2023/10/31 06:24:45;;;;;;;5.10;1.80;;;24.50;57.30;;;;;;6186372;28;80515;-76
2023/10/31 06:27:46;;;;;;;6.78;1.77;;;24.50;57.40;;;;;;6171202;28;80959;-73
2023/10/31 06:30:46;;;;;;;6.18;1.73;;;24.50;57.30;;;;;;6190241;28;81112;-72
2023/10/31 06:33:47;;;;;;;3.20;1.60;;;24.50;56.80;;;;;;6168622;28;81929;-63
2023/10/31 06:36:48;;;;;;;4.75;1.42;;;24.50;56.60;;;;;;6184766;28;80764;-63
2023/10/31 06:39:48;;;;;;;8.13;2.25;;;24.50;55.90;;;;;;6185716;28;80549;-62
2023/10/31 06:42:49;;;;;;;3.63;1.50;;;24.50;55.80;;;;;;6188678;28;81099;-62
2023/10/31 06:45:49;;;;;;;5.68;1.77;;;24.50;55.70;;;;;;6186359;28;81043;-63
2023/10/31 06:48:50;;;;;;;4.43;1.50;;;24.50;55.90;;;;;;6181546;28;82221;-62
2023/10/31 06:51:50;;;;;;;3.92;1.30;;;24.50;55.70;;;;;;6190419;28;80477;-62
2023/10/31 06:54:51;;;;;;;5.45;1.80;;;24.40;55.50;;;;;;6176854;28;80210;-63
2023/10/31 06:57:51;;;;;;;3.70;1.50;;;24.40;55.80;;;;;;6190629;28;80980;-62
2023/10/31 07:00:52;;;;;;;5.18;1.80;;;24.40;55.70;;;;;;6189130;28;82367;-62
2023/10/31 07:03:52;;;;;;;2.42;1.38;;;24.40;55.50;;;;;;6190967;28;82938;-62
2023/10/31 07:06:57;;;;;;;5.10;1.92;;;24.40;55.10;;;;;;6180557;28;80438;-62
2023/10/31 07:09:57;;;;;;;6.43;1.70;;;24.40;54.90;;;;;;6170265;28;82092;-64
2023/10/31 07:12:58;;;;;;;3.70;1.38;;;24.40;54.70;;;;;;6169543;28;81640;-64
2023/10/31 07:15:59;;;;;;;5.28;1.92;;;24.40;54.90;;;;;;6177125;28;81597;-63
2023/10/31 07:18:59;;;;;;;6.18;1.75;;;24.40;54.70;;;;;;6170993;28;80439;-64
2023/10/31 07:22:00;;;;;;;8.77;2.03;;;24.40;54.80;;;;;;6187757;28;80374;-63
2023/10/31 07:25:03;;;;;;;7.30;1.88;;;24.40;54.80;;;;;;6162443;28;81286;-64
2023/10/31 07:28:03;;;;;;;3.55;1.50;;;24.40;54.60;;;;;;6175586;28;80053;-63
2023/10/31 07:31:04;;;;;;;4.00;1.58;;;24.40;54.40;;;;;;6180237;28;82995;-62
2023/10/31 07:34:05;;;;;;;3.72;1.63;;;24.40;54.60;;;;;;6161203;28;80476;-64
2023/10/31 07:37:06;;;;;;;3.85;1.50;;;24.40;54.50;;;;;;6174455;28;81924;-64
2023/10/31 07:40:06;;;;;;;4.68;1.90;;;24.40;54.60;;;;;;6162207;28;80873;-64
2023/10/31 07:43:07;;;;;;;2.47;1.42;;;24.40;54.50;;;;;;6173971;28;80300;-64
2023/10/31 07:46:07;;;;;;;3.65;1.65;;;24.40;54.40;;;;;;6162319;28;80458;-60
2023/10/31 07:49:08;;;;;;;4.22;1.52;;;24.40;54.20;;;;;;6170665;28;80153;-61
2023/10/31 07:52:08;;;;;;;2.00;1.08;;;24.40;54.30;;;;;;6171446;28;80546;-61
2023/10/31 07:55:11;;;;;;;2.35;1.30;;;24.40;54.00;;;;;;6175143;28;80589;-63
2023/10/31 07:58:12;;;;;;;3.60;1.40;;;24.30;54.20;;;;;;6169971;28;80900;-61
2023/10/31 08:01:12;;;;;;;6.03;1.42;;;24.40;54.20;;;;;;6174480;28;80532;-61
2023/10/31 08:04:15;;;;;;;2.95;1.30;;;24.30;54.20;;;;;;6176263;28;80608;-62
2023/10/31 08:07:15;;;;;;;2.35;1.40;;;24.30;54.20;;;;;;6174763;28;80721;-62
2023/10/31 08:10:16;;;;;;;4.10;1.52;;;24.40;54.50;;;;;;6209879;28;80510;-62
2023/10/31 08:13:16;;;;;;;4.97;1.52;;;24.40;54.40;;;;;;6221294;27;81044;-62
2023/10/31 08:16:16;;;;;;;4.63;1.73;;;24.40;54.20;;;;;;6215153;28;80367;-62
2023/10/31 08:19:17;;;;;;;3.78;1.58;;;24.40;54.90;;;;;;6222948;27;80375;-62
2023/10/31 08:22:17;;;;;;;3.17;1.40;;;24.40;54.70;;;;;;6225002;28;86386;-61
2023/10/31 08:25:18;;;;;;;2.88;1.20;;;24.40;55.00;;;;;;6219701;27;80927;-70
2023/10/31 08:28:19;;;;;;;5.85;1.92;;;24.30;54.90;;;;;;6209302;28;80825;-70
2023/10/31 08:31:20;;;;;;;3.35;1.48;;;24.40;54.80;;;;;;6180617;28;81789;-69
2023/10/31 08:34:20;;;;;;;1.50;1.10;;;24.40;54.80;;;;;;6194568;28;80752;-70
2023/10/31 08:37:21;;;;;;;3.55;1.75;;;24.40;54.80;;;;;;6202181;28;80975;-70
2023/10/31 08:40:21;;;;;;;3.70;1.50;;;24.40;54.80;;;;;;6197407;28;80813;-68
2023/10/31 08:43:22;;;;;;;1.75;1.25;;;24.40;54.90;;;;;;6223529;28;82059;-75
2023/10/31 08:46:22;;;;;;;2.60;1.40;;;24.40;55.00;;;;;;6225672;27;80558;-78
2023/10/31 08:49:23;;;;;;;2.88;1.58;;;24.40;55.00;;;;;;6192693;27;81322;-75
2023/10/31 08:52:23;;;;;;;3.90;1.35;;;24.40;55.10;;;;;;6173398;28;80608;-77
2023/10/31 08:55:24;;;;;;;4.15;1.50;;;24.40;55.20;;;;;;6164309;28;80404;-76
2023/10/31 08:58:24;;;;;;;3.22;1.50;;;24.30;55.20;;;;;;6157033;28;81282;-76
2023/10/31 09:01:25;;;;;;;3.80;1.10;;;24.30;55.20;;;;;;6156029;28;81361;-68
2023/10/31 09:04:25;;;;;;;2.30;1.30;;;24.30;55.30;;;;;;6195814;28;80345;-69
2023/10/31 09:07:26;;;;;;;2.38;1.20;;;24.40;55.60;;;;;;6225803;27;80918;-68
2023/10/31 09:10:27;;;;;;;2.70;1.30;;;24.30;55.70;;;;;;6181280;28;80006;-69
2023/10/31 09:13:27;;;;;;;3.17;1.58;;;24.40;55.70;;;;;;6194726;28;82135;-70
2023/10/31 09:16:28;;;;;;;2.80;1.33;;;24.40;55.70;;;;;;6195002;28;81318;-68
2023/10/31 09:19:28;;;;;;;5.68;1.23;;;24.40;55.90;;;;;;6161443;28;83922;-61
2023/10/31 09:22:29;;;;;;;2.35;1.58;;;24.40;56.00;;;;;;6159242;28;80529;-61
2023/10/31 09:25:30;;;;;;;2.17;1.27;;;24.40;55.90;;;;;;6155715;28;80875;-62
2023/10/31 09:28:30;;;;;;;1.83;1.38;;;24.40;56.10;;;;;;6169446;28;81987;-61
2023/10/31 09:31:31;;;;;;;3.90;1.23;;;24.30;56.10;;;;;;6156014;28;80658;-62
2023/10/31 09:34:31;;;;;;;3.42;1.40;;;24.30;56.30;;;;;;6160378;28;81131;-61
2023/10/31 09:37:32;;;;;;;2.42;1.35;;;24.30;56.10;;;;;;6185335;28;81629;-62
2023/10/31 09:40:32;;;;;;;1.70;1.20;;;24.30;56.30;;;;;;6154462;28;80534;-63
2023/10/31 09:43:33;;;;;;;2.63;1.60;;;24.30;56.50;;;;;;6153161;28;80848;-64
2023/10/31 09:46:33;;;;;;;2.22;1.40;;;24.40;56.30;;;;;;6176796;28;80564;-64
2023/10/31 09:49:34;;;;;;;2.72;1.50;;;24.30;56.40;;;;;;6181351;28;80432;-65
2023/10/31 09:52:34;;;;;;;2.53;1.33;;;24.30;56.50;;;;;;6184528;28;81151;-63
2023/10/31 09:55:35;;;;;;;2.67;1.48;;;24.30;56.60;;;;;;6183254;28;80643;-63
2023/10/31 09:58:35;;;;;;;4.03;1.33;;;24.30;56.60;;;;;;6175870;28;81796;-63
2023/10/31 10:01:36;;;;;;;1.83;1.17;;;24.30;56.60;;;;;;6192374;28;80398;-63
2023/10/31 10:04:36;;;;;;;3.35;1.40;;;24.30;56.70;;;;;;6224852;28;80998;-63
2023/10/31 10:07:37;;;;;;;2.53;1.15;;;24.40;56.70;;;;;;6160338;28;80614;-62
2023/10/31 10:10:37;;;;;;;3.08;1.27;;;24.40;56.80;;;;;;6175816;28;87246;-64
2023/10/31 10:13:38;;;;;;;3.05;1.42;;;24.40;56.90;;;;;;6161629;28;80331;-61
2023/10/31 10:16:38;;;;;;;2.25;1.23;;;24.30;56.70;;;;;;6171490;28;80559;-62
2023/10/31 10:19:39;;;;;;;4.47;1.70;;;24.30;57.10;;;;;;6176200;28;80668;-62
2023/10/31 10:22:39;;;;;;;2.38;1.30;;;24.30;57.20;;;;;;6158947;28;81089;-63
2023/10/31 10:25:40;;;;;;;1.58;1.15;;;24.30;57.30;;;;;;6177139;28;81942;-63
2023/10/31 10:28:40;;;;;;;2.72;1.13;;;24.30;57.40;;;;;;6155908;28;80159;-60
2023/10/31 10:31:42;;;;;;;3.72;1.55;;;24.30;57.20;;;;;;6169657;28;81933;-77
2023/10/31 10:34:42;;;;;;;3.92;1.60;;;24.30;57.30;;;;;;6155446;28;81538;-77
2023/10/31 10:37:43;;;;;;;3.60;1.58;;;24.30;57.20;;;;;;6165658;28;80457;-79
2023/10/31 10:40:43;;;;;;;1.88;1.25;;;24.30;57.40;;;;;;6200758;28;80854;-77
2023/10/31 10:43:44;;;;;;;3.38;1.38;;;24.30;57.40;;;;;;6195330;28;80337;-78
2023/10/31 10:46:44;;;;;;;2.15;1.00;;;24.40;57.40;;;;;;6224416;28;80875;-77
2023/10/31 10:49:45;;;;;;;4.22;1.65;;;24.40;57.30;;;;;;6196606;28;81126;-62
2023/10/31 10:52:47;;;;;;;3.42;1.35;;;24.40;57.20;;;;;;6193425;28;80451;-62
2023/10/31 10:55:47;;;;;;;2.75;1.42;;;24.50;57.20;;;;;;6163972;28;81468;-62
2023/10/31 10:58:48;;;;;;;2.22;1.25;;;24.50;57.20;;;;;;6176120;28;83094;-62
2023/10/31 11:01:48;;;;;;;2.35;1.33;;;24.40;57.30;;;;;;6177190;28;81171;-62
2023/10/31 11:04:49;;;;;;;6.28;1.48;;;24.40;57.30;;;;;;6176465;28;81385;-62
2023/10/31 11:07:49;;;;;;;3.00;1.30;;;24.40;57.40;;;;;;6200611;28;81584;-62
2023/10/31 11:10:50;;;;;;;2.00;1.33;;;24.40;57.40;;;;;;6200510;28;80477;-62
2023/10/31 11:13:51;;;;;;;4.28;1.10;;;24.40;57.50;;;;;;6192140;28;80964;-62
2023/10/31 11:16:51;;;;;;;3.92;1.48;;;24.40;57.40;;;;;;6200848;28;81471;-62
2023/10/31 11:19:52;;;;;;;5.38;1.77;;;24.40;57.60;;;;;;6199763;28;80278;-62
2023/10/31 11:22:53;;;;;;;1.58;1.10;;;24.40;57.60;;;;;;6200160;28;82551;-62
2023/10/31 11:25:54;;;;;;;2.80;1.45;;;24.40;57.60;;;;;;6200442;28;85528;-64
2023/10/31 11:28:55;;;;;;;3.80;1.45;;;24.40;57.70;;;;;;6200894;28;83125;-78
2023/10/31 11:31:56;;;;;;;1.63;1.30;;;24.40;57.80;;;;;;6202394;28;80509;-79
2023/10/31 11:34:56;;;;;;;2.35;1.35;;;24.30;57.90;;;;;;6190523;28;80543;-79
2023/10/31 11:37:57;;;;;;;2.50;1.33;;;24.30;58.00;;;;;;6178781;28;80475;-82
2023/10/31 11:40:57;;;;;;;2.42;1.50;;;24.30;57.70;;;;;;6184141;28;81384;-80
2023/10/31 11:43:58;;;;;;;2.28;1.50;;;24.30;57.70;;;;;;6183351;28;80902;-77
2023/10/31 11:46:58;;;;;;;2.17;1.40;;;24.40;57.70;;;;;;6192912;28;80653;-79
2023/10/31 11:49:59;;;;;;;1.95;1.05;;;24.30;57.70;;;;;;6190716;28;81135;-77
2023/10/31 11:53:00;;;;;;;3.33;1.67;;;24.30;58.30;;;;;;6189697;28;80328;-77
2023/10/31 11:56:00;;;;;;;2.25;1.33;;;24.30;57.70;;;;;;6192138;28;80556;-75
2023/10/31 11:59:01;;;;;;;1.58;1.30;;;24.30;57.70;;;;;;6182625;28;81716;-79
2023/10/31 12:02:01;;;;;;;1.98;1.63;;;24.30;57.80;;;;;;6183846;28;80435;-78
2023/10/31 12:05:02;;;;;;;4.53;1.20;;;24.30;57.70;;;;;;6193165;28;80964;-67
2023/10/31 12:08:03;;;;;;;2.38;1.40;;;24.30;57.70;;;;;;6184146;28;82089;-68
2023/10/31 12:11:03;;;;;;;2.90;1.58;;;24.30;57.70;;;;;;6179104;28;80885;-67
2023/10/31 12:14:05;;;;;;;2.72;1.45;;;24.20;57.70;;;;;;6188456;28;80110;-67
2023/10/31 12:17:06;;;;;;;2.83;1.40;;;24.30;57.60;;;;;;6158106;28;80330;-67
2023/10/31 12:20:07;;;;;;;3.22;1.75;;;24.30;57.70;;;;;;6171682;28;81426;-68
2023/10/31 12:23:07;;;;;;;6.13;1.70;;;24.30;57.70;;;;;;6186388;28;80549;-68
2023/10/31 12:26:10;;;;;;;1.90;1.40;;;24.30;57.70;;;;;;6162148;28;80652;-68
2023/10/31 12:29:10;;;;;;;1.88;1.23;;;24.30;57.60;;;;;;6181300;28;81040;-67
2023/10/31 12:32:11;;;;;;;2.70;1.30;;;24.30;57.50;;;;;;6163066;28;80634;-68
2023/10/31 12:35:15;;;;;;;1.60;1.23;;;24.40;57.80;;;;;;6191979;28;80766;-68
2023/10/31 12:38:16;;;;;;;2.38;1.50;;;24.40;57.40;;;;;;6160763;28;80517;-67
2023/10/31 12:41:16;;;;;;;1.70;1.48;;;24.30;57.40;;;;;;6202480;28;80035;-81
2023/10/31 12:44:16;;;;;;;3.13;1.30;;;24.40;57.60;;;;;;6189405;28;81942;-81
2023/10/31 12:47:17;;;;;;;2.58;1.63;;;24.40;57.50;;;;;;6190212;28;80311;-81
2023/10/31 12:50:18;;;;;;;2.05;1.33;;;24.40;57.70;;;;;;6169705;28;81382;-79
2023/10/31 12:53:18;;;;;;;3.92;1.42;;;24.30;57.50;;;;;;6187936;28;80413;-79
2023/10/31 12:56:20;;;;;;;2.97;1.45;;;24.30;57.70;;;;;;6160154;28;80005;-74
2023/10/31 12:59:20;;;;;;;3.03;1.40;;;24.30;57.80;;;;;;6225306;27;81123;-76
2023/10/31 13:02:21;;;;;;;1.90;1.08;;;24.30;57.70;;;;;;6214101;27;80586;-79
2023/10/31 13:05:21;;;;;;;2.00;1.35;;;24.30;57.80;;;;;;6214348;27;80399;-79
2023/10/31 13:08:22;;;;;;;2.38;1.58;;;24.30;57.80;;;;;;6229184;27;81900;-80
2023/10/31 13:11:25;;;;;;;1.95;1.10;;;24.30;57.90;;;;;;6226576;27;80468;-78
2023/10/31 13:14:26;;;;;;;2.70;1.45;;;24.30;58.00;;;;;;6216268;28;81494;-78
2023/10/31 13:17:26;;;;;;;2.72;1.55;;;24.30;57.90;;;;;;6228437;27;80407;-67
2023/10/31 13:20:27;;;;;;;1.95;1.35;;;24.30;57.80;;;;;;6213199;27;80477;-69
2023/10/31 13:23:27;;;;;;;3.08;1.63;;;24.30;57.90;;;;;;6225350;27;80861;-69
2023/10/31 13:26:28;;;;;;;2.70;1.55;;;24.30;57.90;;;;;;6225556;27;80210;-68
2023/10/31 13:29:28;;;;;;;4.43;1.38;;;24.20;57.80;;;;;;6212951;27;81153;-67
2023/10/31 13:32:29;;;;;;;2.97;1.50;;;24.20;57.80;;;;;;6225630;27;80344;-68
2023/10/31 13:35:29;;;;;;;1.98;1.58;;;24.20;57.80;;;;;;6222918;27;80734;-64
2023/10/31 13:38:30;;;;;;;3.65;1.33;;;24.30;57.70;;;;;;6227226;27;82293;-64
2023/10/31 13:41:30;;;;;;;2.40;1.40;;;24.20;57.70;;;;;;6202331;27;81442;-64
2023/10/31 13:44:31;;;;;;;2.22;1.25;;;24.20;57.80;;;;;;6212357;27;81544;-65
2023/10/31 13:47:32;;;;;;;1.98;1.40;;;24.20;57.80;;;;;;6223173;27;80604;-64
2023/10/31 13:50:33;;;;;;;2.78;1.70;;;24.20;57.60;;;;;;6210810;27;80392;-63
2023/10/31 13:53:34;;;;;;;3.58;1.73;;;24.20;57.70;;;;;;6213867;27;79892;-65
2023/10/31 13:56:34;;;;;;;2.33;1.25;;;24.20;57.70;;;;;;6173122;28;80473;-65
2023/10/31 13:59:35;;;;;;;2.10;1.30;;;24.20;57.70;;;;;;6160135;28;80296;-65
2023/10/31 14:02:35;;;;;;;4.65;1.88;;;24.20;57.70;;;;;;6198040;27;81004;-64
2023/10/31 14:05:36;;;;;;;3.17;1.48;;;24.20;57.80;;;;;;6190975;28;80525;-64
2023/10/31 14:08:36;;;;;;;1.95;1.55;;;24.20;57.80;;;;;;6159609;28;80389;-65
2023/10/31 14:11:37;;;;;;;2.67;1.60;;;24.20;57.80;;;;;;6171938;28;80335;-65
2023/10/31 14:14:38;;;;;;;2.13;1.40;;;24.20;57.90;;;;;;6164548;28;86738;-64
2023/10/31 14:17:38;;;;;;;3.20;1.40;;;24.20;57.90;;;;;;6177068;28;80618;-64
2023/10/31 14:20:40;;;;;;;2.90;1.70;;;24.20;57.80;;;;;;6177816;28;80783;-64
2023/10/31 14:23:40;;;;;;;4.20;1.65;;;24.20;57.90;;;;;;6196175;28;81774;-65
2023/10/31 14:26:43;;;;;;;3.08;1.38;;;24.10;57.90;;;;;;6201141;28;80525;-64
2023/10/31 14:29:43;;;;;;;2.28;1.42;;;24.20;58.10;;;;;;6197764;28;80284;-64
2023/10/31 14:32:44;;;;;;;2.67;1.48;;;24.20;58.00;;;;;;6206446;28;80261;-68
2023/10/31 14:35:44;;;;;;;3.05;1.50;;;24.20;58.00;;;;;;6220668;28;80971;-68
2023/10/31 14:38:45;;;;;;;1.45;1.17;;;24.20;58.10;;;;;;6211461;28;80843;-68
2023/10/31 14:41:47;;;;;;;3.20;1.70;;;24.20;58.10;;;;;;6218032;27;80541;-68
2023/10/31 14:44:47;;;;;;;2.15;1.42;;;24.20;58.10;;;;;;6224908;27;80412;-69
2023/10/31 14:47:48;;;;;;;3.78;1.80;;;24.10;58.10;;;;;;6216024;27;80346;-69
2023/10/31 14:50:48;;;;;;;3.53;1.70;;;24.10;58.20;;;;;;6211765;27;80484;-64
2023/10/31 14:53:49;;;;;;;2.72;1.90;;;24.10;58.20;;;;;;6205368;28;80848;-65
2023/10/31 14:56:49;;;;;;;2.90;1.45;;;24.10;58.20;;;;;;6211958;28;81197;-63
2023/10/31 14:59:50;;;;;;;3.83;1.58;;;24.10;58.40;;;;;;6224781;27;80292;-63
2023/10/31 15:02:50;;;;;;;5.72;1.77;;;24.10;58.30;;;;;;6181391;28;81075;-61
2023/10/31 15:05:51;;;;;;;4.55;1.73;;;24.20;58.50;;;;;;6172956;28;80407;-62
2023/10/31 15:08:51;;;;;;;8.98;2.05;;;24.20;58.60;;;;;;6215448;27;80693;-62
2023/10/31 15:11:52;;;;;;;4.40;1.90;;;24.20;58.30;;;;;;6193813;28;80921;-62
2023/10/31 15:14:52;;;;;;;5.07;2.20;;;24.20;58.50;;;;;;6175380;28;80412;-62
2023/10/31 15:17:53;;;;;;;6.25;2.00;;;24.20;58.30;;;;;;6187404;28;80075;-61
2023/10/31 15:20:57;;;;;;;4.28;1.60;;;24.20;58.40;;;;;;6170351;28;80459;-61
2023/10/31 15:23:57;;;;;;;3.95;1.80;;;24.20;58.40;;;;;;6182575;28;80959;-62
2023/10/31 15:26:58;;;;;;;3.17;1.70;;;24.30;58.40;;;;;;6182360;28;80955;-62
2023/10/31 15:29:58;;;;;;;2.00;1.67;;;24.20;58.40;;;;;;6194366;28;80969;-62
2023/10/31 15:33:00;;;;;;;4.85;1.60;;;24.30;58.60;;;;;;6184161;28;81039;-64
2023/10/31 15:36:01;;;;;;;5.70;2.13;;;24.30;59.10;;;;;;6170125;28;84215;-65
2023/10/31 15:39:01;;;;;;;5.57;1.83;;;24.30;60.10;;;;;;6179049;28;86583;-66